createdAt,value
2018-03-07T00:07:03.093Z,6.2
2018-03-07T00:17:18.941Z,6.0
2018-03-07T00:27:33.334Z,5.9
2018-03-07T00:38:21.890Z,5.7
2018-03-07T00:48:40.783Z,5.7
2018-03-07T00:58:56.494Z,5.6
2018-03-07T01:09:29.480Z,5.6
2018-03-07T01:19:44.183Z,5.5
2018-03-07T01:29:58.455Z,5.5
2018-03-07T01:40:45.317Z,5.4
2018-03-07T01:50:59.317Z,5.4
2018-03-07T02:01:25.941Z,5.4
2018-03-07T02:12:18.762Z,5.3
2018-03-07T02:22:32.435Z,5.3
2018-03-07T02:32:47.263Z,5.2
2018-03-07T02:43:01.937Z,5.0
2018-03-07T02:53:16.879Z,4.9
2018-03-07T03:03:30.969Z,4.7
2018-03-07T03:14:21.807Z,4.2
2018-03-07T03:25:07.299Z,4.1
2018-03-07T03:35:21.409Z,4.0
2018-03-07T03:45:35.795Z,3.9
2018-03-07T03:55:49.567Z,3.7
2018-03-07T04:06:02.104Z,3.5
2018-03-07T04:16:14.579Z,3.3
2018-03-07T04:26:28.736Z,3.1
2018-03-07T04:37:14.117Z,2.7
2018-03-07T04:47:25.660Z,2.8
2018-03-07T04:57:40.302Z,2.6
2018-03-07T05:07:54.233Z,2.5
2018-03-07T05:18:39.684Z,2.5
2018-03-07T05:28:53.992Z,2.5
2018-03-07T05:39:39.742Z,2.4
2018-03-07T05:49:51.219Z,2.3
2018-03-07T06:00:07.279Z,2.3
2018-03-07T06:10:18.747Z,2.3
2018-03-07T06:21:10.369Z,2.1
2018-03-07T06:31:56.381Z,2.1
2018-03-07T06:42:10.556Z,2.1
2018-03-07T06:52:25.060Z,2.0
2018-03-07T07:02:39.430Z,1.9
2018-03-07T07:12:55.186Z,1.8
2018-03-07T07:23:08.996Z,1.8
2018-03-07T07:33:23.092Z,1.9
2018-03-07T07:43:36.909Z,2.1
2018-03-07T07:53:51.160Z,2.4
2018-03-07T08:04:05.734Z,2.7
2018-03-07T08:14:19.688Z,3.2
2018-03-07T08:24:34.242Z,3.8
2018-03-07T08:34:46.210Z,4.8
2018-03-07T08:45:00.465Z,6.0
2018-03-07T08:55:14.834Z,6.9
2018-03-07T09:05:29.310Z,7.7
2018-03-07T09:15:43.246Z,8.7
2018-03-07T09:26:02.400Z,9.7
2018-03-07T09:36:16.480Z,11.1
2018-03-07T09:46:30.718Z,12.6
2018-03-07T09:57:16.565Z,15.9
2018-03-07T10:08:02.744Z,18.0
2018-03-07T10:18:16.884Z,18.0
2018-03-07T10:29:02.360Z,21.7
2018-03-07T10:39:49.295Z,23.1
2018-03-07T10:50:05.626Z,23.2
2018-03-07T11:00:18.009Z,24.3
2018-03-07T11:10:30.244Z,25.3
2018-03-07T11:20:55.360Z,26.1
2018-03-07T11:31:41.064Z,27.2
2018-03-07T11:42:26.658Z,27.7
2018-03-07T11:52:38.471Z,27.7
2018-03-07T12:02:52.333Z,28.1
2018-03-07T12:13:06.736Z,28.4
2018-03-07T12:23:52.431Z,28.6
2018-03-07T12:34:37.957Z,28.5
2018-03-07T12:44:52.279Z,28.5
2018-03-07T12:55:08.191Z,28.5
2018-03-07T13:05:22.526Z,28.2
2018-03-07T13:15:34.776Z,27.7
2018-03-07T13:26:50.548Z,26.9
2018-03-07T13:37:04.593Z,25.8
2018-03-07T13:47:16.564Z,24.4
2018-03-07T13:57:31.047Z,23.2
2018-03-07T14:07:43.722Z,22.1
2018-03-07T14:17:57.310Z,21.2
2018-03-07T14:28:11.505Z,20.3
2018-03-07T14:38:26.673Z,19.4
2018-03-07T14:48:40.980Z,18.7
2018-03-07T15:09:49.202Z,17.0
2018-03-07T15:20:03.359Z,16.2
2018-03-07T15:30:17.742Z,15.4
2018-03-07T15:40:31.825Z,14.6
2018-03-07T15:50:44.246Z,13.8
2018-03-07T16:00:58.050Z,13.1
2018-03-07T16:11:12.569Z,12.6
2018-03-07T16:21:27.325Z,12.0
2018-03-07T16:32:20.258Z,11.1
2018-03-07T16:43:32.314Z,11.1
2018-03-07T16:54:53.398Z,10.3
2018-03-07T17:05:08.438Z,10.3
2018-03-07T17:15:54.057Z,9.7
2018-03-07T17:26:41.912Z,9.4
2018-03-07T17:37:29.171Z,9.1
2018-03-07T17:47:42.952Z,9.1
2018-03-07T17:58:28.644Z,8.6
2018-03-07T18:09:18.201Z,8.6
2018-03-07T18:19:48.618Z,8.4
2018-03-07T18:30:02.499Z,8.2
2018-03-07T19:26:20.992Z,7.3
2018-03-07T19:37:07.227Z,7.2
2018-03-07T20:03:24.000Z,6.9
2018-03-07T20:13:38.775Z,6.9
2018-03-07T20:24:25.397Z,6.8
2018-03-07T20:34:37.770Z,6.7
2018-03-07T20:45:25.930Z,6.6
2018-03-07T20:55:39.008Z,6.6
2018-03-07T21:05:53.608Z,6.5
2018-03-07T21:16:08.696Z,6.5
2018-03-07T21:26:54.228Z,6.4
2018-03-07T21:37:40.966Z,6.3
2018-03-07T21:47:55.660Z,6.3
2018-03-07T21:58:43.837Z,6.2
2018-03-07T22:09:29.850Z,6.2
2018-03-07T22:20:17.360Z,6.2
2018-03-07T22:31:40.849Z,6.1
2018-03-07T22:42:16.540Z,6.1
2018-03-07T22:52:30.926Z,6.0
2018-03-07T23:03:22.941Z,5.9
2018-03-07T23:14:13.436Z,6.0
2018-03-07T23:24:58.446Z,6.0
2018-03-07T23:35:44.250Z,5.9
2018-03-07T23:46:30.050Z,5.9
2018-03-07T23:57:15.434Z,5.8
